createdAt,value
2018-12-13T00:01:55.935Z,10.75
2018-12-13T00:04:24.107Z,11.43
2018-12-13T00:06:52.494Z,12.13
2018-12-13T00:09:20.767Z,11.08
2018-12-13T00:11:48.864Z,11.63
2018-12-13T00:14:17.107Z,11.20
2018-12-13T00:16:45.300Z,12.15
2018-12-13T00:19:13.541Z,12.82
2018-12-13T00:21:41.627Z,13.10
2018-12-13T00:24:09.924Z,13.60
2018-12-13T00:26:38.177Z,13.63
2018-12-13T00:29:06.334Z,14.03
2018-12-13T00:31:34.563Z,14.05
2018-12-13T00:34:02.807Z,13.22
2018-12-13T00:36:30.924Z,14.00
2018-12-13T00:38:59.063Z,15.00
2018-12-13T00:41:27.283Z,15.98
2018-12-13T00:43:55.571Z,14.55
2018-12-13T00:46:23.790Z,15.08
2018-12-13T00:48:51.891Z,14.38
2018-12-13T00:51:20.124Z,15.50
2018-12-13T00:53:48.364Z,18.30
2018-12-13T00:56:16.589Z,16.50
2018-12-13T00:58:44.702Z,16.48
2018-12-13T01:01:12.826Z,19.42
2018-12-13T01:03:41.003Z,19.27
2018-12-13T01:06:09.332Z,19.17
2018-12-13T01:08:37.513Z,19.00
2018-12-13T01:11:05.823Z,19.15
2018-12-13T01:13:34.085Z,18.67
2018-12-13T01:16:02.201Z,19.75
2018-12-13T01:18:30.307Z,17.55
2018-12-13T01:20:58.483Z,17.10
2018-12-13T01:23:26.658Z,17.92
2018-12-13T01:25:54.827Z,16.87
2018-12-13T01:28:22.991Z,18.10
2018-12-13T01:30:51.122Z,20.15
2018-12-13T01:33:19.252Z,19.55
2018-12-13T01:35:47.394Z,21.17
2018-12-13T01:38:15.606Z,17.80
2018-12-13T01:40:43.733Z,19.80
2018-12-13T01:43:11.899Z,19.30
2018-12-13T01:45:40.027Z,18.87
2018-12-13T01:48:08.188Z,21.07
2018-12-13T01:50:36.467Z,24.55
2018-12-13T01:53:04.704Z,25.82
2018-12-13T01:55:32.934Z,21.68
2018-12-13T01:58:01.242Z,23.67
2018-12-13T02:00:29.458Z,24.57
2018-12-13T02:02:57.674Z,26.33
2018-12-13T02:05:25.854Z,19.12
2018-12-13T02:07:54.071Z,18.37
2018-12-13T02:10:22.210Z,19.30
2018-12-13T02:12:50.446Z,19.52
2018-12-13T02:15:18.638Z,17.60
2018-12-13T02:17:46.735Z,20.45
2018-12-13T02:20:14.842Z,24.40
2018-12-13T02:22:43.025Z,21.93
2018-12-13T02:25:11.254Z,23.02
2018-12-13T02:27:39.551Z,22.75
2018-12-13T02:30:09.704Z,20.45
2018-12-13T02:32:37.830Z,21.37
2018-12-13T02:35:06.254Z,20.80
2018-12-13T02:37:34.516Z,23.45
2018-12-13T02:40:02.770Z,22.10
2018-12-13T02:42:31.132Z,20.57
2018-12-13T02:44:59.258Z,22.15
2018-12-13T02:47:27.399Z,23.62
2018-12-13T02:49:55.615Z,19.98
2018-12-13T02:52:23.738Z,21.60
2018-12-13T02:54:51.858Z,20.60
2018-12-13T02:57:20.055Z,20.57
2018-12-13T02:59:48.339Z,18.75
2018-12-13T03:02:16.598Z,19.48
2018-12-13T03:04:44.801Z,20.62
2018-12-13T03:07:14.005Z,17.50
2018-12-13T03:09:42.448Z,20.80
2018-12-13T03:12:10.697Z,20.35
2018-12-13T03:14:38.831Z,19.23
2018-12-13T03:17:07.018Z,18.75
2018-12-13T03:19:35.347Z,18.45
2018-12-13T03:22:03.601Z,18.95
2018-12-13T03:24:31.808Z,18.65
2018-12-13T03:27:00.001Z,19.53
2018-12-13T03:29:28.197Z,17.92
2018-12-13T03:31:56.398Z,19.10
2018-12-13T03:34:24.591Z,18.48
2018-12-13T03:36:53.066Z,19.57
2018-12-13T03:39:21.320Z,19.45
2018-12-13T03:41:49.513Z,18.00
2018-12-13T03:44:17.735Z,18.07
2018-12-13T03:46:45.990Z,18.57
2018-12-13T03:49:14.170Z,19.45
2018-12-13T03:51:42.287Z,18.50
2018-12-13T03:54:10.526Z,19.50
2018-12-13T03:56:38.663Z,17.30
2018-12-13T03:59:06.886Z,17.87
2018-12-13T04:01:35.273Z,20.02
2018-12-13T04:04:03.460Z,17.87
2018-12-13T04:06:31.684Z,18.65
2018-12-13T04:08:59.893Z,18.40
2018-12-13T04:11:28.068Z,20.02
2018-12-13T04:13:56.347Z,19.52
2018-12-13T04:16:24.435Z,21.95
2018-12-13T04:18:52.639Z,20.02
2018-12-13T04:21:20.803Z,20.48
2018-12-13T04:23:48.948Z,21.23
2018-12-13T04:26:17.159Z,20.48
2018-12-13T04:28:45.318Z,20.45
2018-12-13T04:31:13.487Z,24.85
2018-12-13T04:33:41.930Z,23.10
2018-12-13T04:36:10.102Z,22.70
2018-12-13T04:38:38.238Z,21.35
2018-12-13T04:41:06.631Z,19.05
2018-12-13T04:43:34.764Z,20.40
2018-12-13T04:46:02.910Z,21.62
2018-12-13T04:48:30.974Z,22.85
2018-12-13T04:50:59.146Z,23.90
2018-12-13T04:53:27.366Z,22.32
2018-12-13T04:55:55.722Z,23.57
2018-12-13T04:58:23.966Z,21.10
2018-12-13T05:00:52.059Z,20.23
2018-12-13T05:03:20.318Z,19.55
2018-12-13T05:05:48.666Z,19.73
2018-12-13T05:08:16.816Z,20.50
2018-12-13T05:10:50.086Z,19.17
2018-12-13T05:15:57.118Z,19.62
2018-12-13T05:18:25.278Z,19.20
2018-12-13T05:20:55.684Z,18.32
2018-12-13T05:23:23.876Z,18.83
2018-12-13T05:25:52.124Z,18.87
2018-12-13T05:28:20.328Z,17.17
2018-12-13T05:30:48.447Z,19.35
2018-12-13T05:33:16.594Z,17.23
2018-12-13T05:35:44.854Z,18.87
2018-12-13T05:38:13.115Z,19.95
2018-12-13T05:40:42.367Z,17.42
2018-12-13T05:43:10.517Z,18.15
2018-12-13T05:45:39.762Z,17.80
2018-12-13T05:48:07.903Z,18.77
2018-12-13T05:50:36.702Z,19.77
2018-12-13T05:53:05.004Z,19.67
2018-12-13T05:55:33.165Z,18.00
2018-12-13T05:58:01.285Z,18.27
2018-12-13T06:00:29.742Z,17.52
2018-12-13T06:02:57.902Z,17.80
2018-12-13T06:05:26.285Z,18.77
2018-12-13T06:07:55.084Z,18.50
2018-12-13T06:10:23.468Z,18.15
2018-12-13T06:12:51.676Z,17.87
2018-12-13T06:15:19.855Z,17.85
2018-12-13T06:17:48.282Z,19.40
2018-12-13T06:20:16.466Z,17.87
2018-12-13T06:22:44.690Z,18.65
2018-12-13T06:25:13.041Z,18.30
2018-12-13T06:27:41.336Z,18.80
2018-12-13T06:30:09.711Z,19.27
2018-12-13T06:32:37.970Z,18.85
2018-12-13T06:35:06.420Z,19.30
2018-12-13T06:37:34.776Z,20.05
2018-12-13T06:40:03.137Z,19.95
2018-12-13T06:42:32.180Z,19.95
2018-12-13T06:45:00.903Z,20.10
2018-12-13T06:47:29.729Z,20.60
2018-12-13T06:49:58.268Z,20.05
2018-12-13T06:52:26.709Z,20.20
2018-12-13T06:54:55.233Z,20.88
2018-12-13T06:57:27.016Z,21.48
2018-12-13T06:59:55.417Z,20.10
2018-12-13T07:02:24.131Z,20.80
2018-12-13T07:04:53.775Z,21.17
2018-12-13T07:07:22.274Z,20.30
2018-12-13T07:09:50.750Z,19.15
2018-12-13T07:12:19.130Z,20.48
2018-12-13T07:14:47.671Z,21.33
2018-12-13T07:17:16.394Z,22.45
2018-12-13T07:19:44.950Z,22.00
2018-12-13T07:22:14.383Z,20.02
2018-12-13T07:24:43.018Z,22.52
2018-12-13T07:27:11.453Z,21.37
2018-12-13T07:29:40.598Z,20.92
2018-12-13T07:32:09.272Z,22.22
2018-12-13T07:34:37.874Z,20.43
2018-12-13T07:37:06.389Z,20.62
2018-12-13T07:39:34.861Z,19.27
2018-12-13T07:42:03.508Z,21.48
2018-12-13T07:44:31.941Z,21.25
2018-12-13T07:49:44.814Z,20.77
2018-12-13T07:52:12.930Z,19.98
2018-12-13T07:54:41.050Z,19.50
2018-12-13T07:57:09.248Z,19.62
2018-12-13T07:59:37.454Z,19.80
2018-12-13T08:02:05.714Z,20.08
2018-12-13T08:04:33.864Z,19.25
2018-12-13T08:07:02.070Z,21.35
2018-12-13T08:09:30.342Z,19.27
2018-12-13T08:11:58.459Z,20.57
2018-12-13T08:14:26.668Z,19.57
2018-12-13T08:16:54.962Z,20.08
2018-12-13T08:19:23.080Z,18.98
2018-12-13T08:21:51.354Z,21.95
2018-12-13T08:24:19.530Z,20.27
2018-12-13T08:26:47.695Z,21.97
2018-12-13T08:29:15.865Z,20.10
2018-12-13T08:31:44.154Z,20.95
2018-12-13T08:34:12.271Z,20.57
2018-12-13T08:36:40.554Z,22.13
2018-12-13T08:39:10.010Z,19.07
2018-12-13T08:41:38.547Z,20.00
2018-12-13T08:44:07.249Z,19.35
2018-12-13T08:46:36.664Z,18.65
2018-12-13T08:49:05.062Z,21.12
2018-12-13T08:51:33.180Z,19.05
2018-12-13T08:54:01.358Z,19.10
2018-12-13T08:56:29.557Z,19.32
2018-12-13T08:58:57.814Z,20.47
2018-12-13T09:01:26.064Z,20.75
2018-12-13T09:03:54.495Z,20.17
2018-12-13T09:06:22.893Z,20.70
2018-12-13T09:08:51.077Z,20.92
2018-12-13T09:11:19.354Z,19.82
2018-12-13T09:13:47.441Z,20.35
2018-12-13T09:16:15.698Z,19.70
2018-12-13T09:18:43.863Z,20.00
2018-12-13T09:21:12.066Z,20.57
2018-12-13T09:23:40.202Z,19.27
2018-12-13T09:26:08.430Z,19.37
2018-12-13T09:28:36.607Z,19.15
2018-12-13T09:31:04.742Z,18.17
2018-12-13T09:33:32.830Z,18.62
2018-12-13T09:36:01.075Z,19.82
2018-12-13T09:38:29.307Z,20.00
2018-12-13T09:40:57.492Z,19.20
2018-12-13T09:43:25.719Z,19.27
2018-12-13T09:45:53.867Z,19.98
2018-12-13T09:48:22.107Z,19.50
2018-12-13T09:50:50.350Z,18.55
2018-12-13T09:53:18.651Z,17.63
2018-12-13T09:55:46.897Z,19.27
2018-12-13T09:58:15.059Z,19.98
2018-12-13T10:00:43.435Z,19.07
2018-12-13T10:03:11.623Z,19.25
2018-12-13T10:05:39.691Z,18.37
2018-12-13T10:08:08.027Z,18.25
2018-12-13T10:10:36.111Z,19.02
2018-12-13T10:13:04.318Z,21.02
2018-12-13T10:15:32.641Z,18.87
2018-12-13T10:18:00.941Z,18.82
2018-12-13T10:20:29.140Z,20.50
2018-12-13T10:22:57.388Z,18.10
2018-12-13T10:25:25.496Z,17.67
2018-12-13T10:27:53.944Z,18.60
2018-12-13T10:30:22.257Z,20.40
2018-12-13T10:32:50.411Z,18.32
2018-12-13T10:35:18.747Z,18.75
2018-12-13T10:37:46.947Z,16.62
2018-12-13T10:40:15.181Z,17.55
2018-12-13T10:42:43.527Z,17.27
2018-12-13T10:45:11.742Z,16.73
2018-12-13T10:47:39.883Z,17.82
2018-12-13T10:50:08.526Z,17.10
2018-12-13T10:52:36.734Z,17.27
2018-12-13T10:55:05.315Z,18.27
2018-12-13T10:57:33.507Z,16.90
2018-12-13T11:00:01.690Z,15.60
2018-12-13T11:02:38.267Z,17.73
2018-12-13T11:05:06.529Z,16.62
2018-12-13T11:07:34.670Z,16.20
2018-12-13T11:10:02.902Z,17.37
2018-12-13T11:12:31.117Z,17.87
2018-12-13T11:14:59.498Z,17.23
2018-12-13T11:17:27.629Z,17.52
2018-12-13T11:19:55.799Z,17.48
2018-12-13T11:22:24.086Z,17.40
2018-12-13T11:24:52.271Z,17.97
2018-12-13T11:27:31.829Z,18.52
2018-12-13T11:30:36.558Z,18.00
2018-12-13T11:33:04.765Z,17.92
2018-12-13T11:35:32.871Z,18.27
2018-12-13T11:38:01.075Z,18.30
2018-12-13T11:40:29.274Z,16.62
2018-12-13T11:42:57.379Z,16.62
2018-12-13T11:45:25.914Z,17.12
2018-12-13T11:47:54.182Z,17.30
2018-12-13T11:50:22.605Z,16.93
2018-12-13T11:52:50.787Z,17.70
2018-12-13T11:55:36.293Z,17.02
2018-12-13T11:58:11.388Z,16.30
2018-12-13T12:00:39.818Z,17.32
2018-12-13T12:03:08.194Z,18.17
2018-12-13T12:05:36.378Z,19.02
2018-12-13T12:08:04.725Z,17.50
2018-12-13T12:10:33.042Z,18.30
2018-12-13T12:13:01.275Z,17.85
2018-12-13T12:15:29.481Z,16.47
2018-12-13T12:17:57.785Z,18.35
2018-12-13T12:20:25.926Z,16.73
2018-12-13T12:22:54.159Z,17.57
2018-12-13T12:25:22.379Z,20.45
2018-12-13T12:27:50.691Z,17.00
2018-12-13T12:30:18.900Z,18.05
2018-12-13T12:32:46.987Z,17.95
2018-12-13T12:35:15.186Z,15.60
2018-12-13T12:37:43.661Z,16.85
2018-12-13T12:40:12.065Z,17.73
2018-12-13T12:42:40.243Z,17.00
2018-12-13T12:45:08.430Z,18.05
2018-12-13T12:47:36.504Z,17.95
2018-12-13T12:50:06.331Z,17.95
2018-12-13T12:52:34.670Z,16.75
2018-12-13T12:55:03.052Z,16.97
2018-12-13T12:57:31.146Z,17.05
2018-12-13T12:59:59.569Z,15.95
2018-12-13T13:02:28.890Z,15.53
2018-12-13T13:04:57.102Z,17.37
2018-12-13T13:07:25.184Z,15.18
2018-12-13T13:09:53.637Z,14.47
2018-12-13T13:12:22.262Z,15.47
2018-12-13T13:14:50.378Z,16.73
2018-12-13T13:17:18.586Z,17.27
2018-12-13T13:19:46.806Z,15.80
2018-12-13T13:22:15.118Z,15.10
2018-12-13T13:24:43.285Z,15.68
2018-12-13T13:27:11.471Z,17.55
2018-12-13T13:29:39.566Z,15.53
2018-12-13T13:32:07.741Z,15.98
2018-12-13T13:34:35.994Z,16.82
2018-12-13T13:37:04.181Z,16.50
2018-12-13T13:39:32.414Z,16.15
2018-12-13T13:42:00.518Z,15.18
2018-12-13T13:44:34.079Z,16.00
2018-12-13T13:47:02.473Z,16.87
2018-12-13T13:49:30.895Z,15.43
2018-12-13T13:51:59.083Z,14.73
2018-12-13T13:54:27.362Z,16.27
2018-12-13T13:56:55.554Z,20.77
2018-12-13T13:59:23.706Z,20.10
2018-12-13T14:01:51.972Z,17.67
2018-12-13T14:04:20.357Z,16.23
2018-12-13T14:06:48.622Z,16.03
2018-12-13T14:09:16.834Z,16.27
2018-12-13T14:11:44.942Z,16.15
2018-12-13T14:14:13.193Z,16.07
2018-12-13T14:16:41.478Z,15.80
2018-12-13T14:19:10.606Z,16.00
2018-12-13T14:21:39.281Z,16.75
2018-12-13T14:24:07.596Z,15.47
2018-12-13T14:26:35.750Z,16.02
2018-12-13T14:29:04.033Z,16.65
2018-12-13T14:31:34.611Z,16.95
2018-12-13T14:34:02.918Z,18.73
2018-12-13T14:36:31.230Z,16.73
2018-12-13T14:38:59.346Z,16.17
2018-12-13T14:41:27.557Z,16.05
2018-12-13T14:43:55.710Z,16.23
2018-12-13T14:46:24.037Z,19.23
2018-12-13T14:48:52.294Z,14.83
2018-12-13T14:51:20.725Z,17.57
2018-12-13T14:53:48.927Z,15.18
2018-12-13T14:56:17.327Z,16.27
2018-12-13T14:58:45.610Z,16.15
2018-12-13T15:01:13.825Z,17.32
2018-12-13T15:03:41.962Z,16.00
2018-12-13T15:06:10.112Z,16.15
2018-12-13T15:08:38.466Z,16.17
2018-12-13T15:11:07.164Z,15.80
2018-12-13T15:13:35.378Z,18.35
2018-12-13T15:16:03.679Z,16.97
2018-12-13T15:18:31.859Z,20.92
2018-12-13T15:21:00.308Z,16.40
2018-12-13T15:23:28.591Z,17.95
2018-12-13T15:25:56.811Z,15.75
2018-12-13T15:28:25.129Z,16.37
2018-12-13T15:30:53.275Z,23.40
2018-12-13T15:33:21.344Z,23.98
2018-12-13T15:35:49.771Z,23.35
2018-12-13T15:38:17.918Z,18.37
2018-12-13T15:40:46.082Z,18.35
2018-12-13T15:43:14.218Z,18.42
2018-12-13T15:45:42.558Z,19.35
2018-12-13T15:48:10.660Z,19.02
2018-12-13T15:50:38.930Z,22.40
2018-12-13T15:53:07.001Z,26.00
2018-12-13T15:55:35.077Z,24.95
2018-12-13T15:58:03.283Z,17.35
2018-12-13T16:00:31.569Z,17.05
2018-12-13T16:02:59.904Z,18.95
2018-12-13T16:05:28.465Z,18.25
2018-12-13T16:07:57.496Z,15.68
2018-12-13T16:10:25.695Z,19.02
2018-12-13T16:12:53.906Z,18.50
2018-12-13T16:15:21.981Z,17.90
2018-12-13T16:17:50.563Z,18.80
2018-12-13T16:20:18.758Z,19.42
2018-12-13T16:22:46.969Z,18.57
2018-12-13T16:25:15.120Z,20.20
2018-12-13T16:27:43.345Z,20.50
2018-12-13T16:30:11.854Z,20.15
2018-12-13T16:32:40.260Z,22.13
2018-12-13T16:35:08.506Z,18.48
2018-12-13T16:37:36.590Z,19.67
2018-12-13T16:40:10.210Z,18.35
2018-12-13T16:42:35.726Z,19.27
2018-12-13T16:45:03.976Z,19.65
2018-12-13T16:47:32.370Z,18.05
2018-12-13T16:50:00.515Z,19.07
2018-12-13T16:52:28.734Z,17.62
2018-12-13T16:54:56.892Z,17.98
2018-12-13T16:57:25.530Z,18.45
2018-12-13T16:59:53.687Z,20.27
2018-12-13T17:02:21.774Z,19.30
2018-12-13T17:04:49.990Z,18.02
2018-12-13T17:07:18.276Z,17.60
2018-12-13T17:09:46.490Z,19.65
2018-12-13T17:12:14.714Z,18.45
2018-12-13T17:14:43.008Z,19.07
2018-12-13T17:17:11.321Z,18.57
2018-12-13T17:19:39.574Z,23.47
2018-12-13T17:22:07.666Z,21.12
2018-12-13T17:24:35.822Z,17.95
2018-12-13T17:27:03.914Z,19.45
2018-12-13T17:29:32.249Z,17.57
2018-12-13T17:32:00.345Z,19.10
2018-12-13T17:34:28.622Z,18.37
2018-12-13T17:36:56.942Z,20.50
2018-12-13T17:39:25.083Z,18.45
2018-12-13T17:41:53.231Z,19.82
2018-12-13T17:44:21.600Z,20.62
2018-12-13T17:46:49.802Z,24.63
2018-12-13T17:49:17.979Z,25.17
2018-12-13T17:51:46.179Z,22.05
2018-12-13T17:54:14.493Z,22.10
2018-12-13T17:56:42.678Z,21.17
2018-12-13T17:59:10.971Z,22.52
2018-12-13T18:01:39.077Z,22.07
2018-12-13T18:04:07.392Z,22.32
2018-12-13T18:06:35.574Z,20.05
2018-12-13T18:09:05.446Z,18.32
2018-12-13T18:11:33.639Z,18.10
2018-12-13T18:14:01.838Z,17.52
2018-12-13T18:16:30.100Z,17.73
2018-12-13T18:18:58.322Z,18.42
2018-12-13T18:21:26.622Z,17.05
2018-12-13T18:23:54.731Z,20.45
2018-12-13T18:26:22.990Z,18.25
2018-12-13T18:28:51.239Z,17.48
2018-12-13T18:31:19.304Z,19.87
2018-12-13T18:33:47.447Z,21.23
2018-12-13T18:36:15.650Z,21.42
2018-12-13T18:38:43.875Z,21.62
2018-12-13T18:41:12.172Z,21.85
2018-12-13T18:43:40.382Z,20.75
2018-12-13T18:46:08.757Z,22.62
2018-12-13T18:48:37.010Z,22.02
2018-12-13T18:51:05.164Z,20.70
2018-12-13T18:53:33.295Z,18.80
2018-12-13T18:56:01.463Z,18.57
2018-12-13T18:58:29.610Z,20.50
2018-12-13T19:00:57.960Z,18.57
2018-12-13T19:03:26.301Z,20.10
2018-12-13T19:05:54.523Z,19.40
2018-12-13T19:08:22.677Z,18.52
2018-12-13T19:10:51.033Z,17.82
2018-12-13T19:13:19.340Z,16.65
2018-12-13T19:15:47.454Z,15.75
2018-12-13T19:18:15.822Z,16.60
2018-12-13T19:20:44.171Z,19.87
2018-12-13T19:23:12.275Z,17.27
2018-12-13T19:25:40.398Z,20.05
2018-12-13T19:28:08.626Z,18.02
2018-12-13T19:30:36.938Z,18.20
2018-12-13T19:33:05.137Z,16.67
2018-12-13T19:35:33.567Z,16.27
2018-12-13T19:38:01.859Z,17.25
2018-12-13T19:40:30.126Z,16.23
2018-12-13T19:42:58.302Z,16.52
2018-12-13T19:45:26.570Z,15.18
2018-12-13T19:47:54.703Z,19.17
2018-12-13T19:50:22.943Z,17.87
2018-12-13T19:52:51.050Z,16.10
2018-12-13T19:55:19.166Z,17.07
2018-12-13T19:57:47.282Z,17.48
2018-12-13T20:00:15.550Z,16.73
2018-12-13T20:02:43.797Z,18.40
2018-12-13T20:05:11.958Z,14.93
2018-12-13T20:07:40.090Z,17.25
2018-12-13T20:10:08.911Z,18.20
2018-12-13T20:12:37.182Z,16.40
2018-12-13T20:15:05.931Z,16.42
2018-12-13T20:17:34.178Z,17.48
2018-12-13T20:20:02.510Z,19.65
2018-12-13T20:22:30.603Z,18.75
2018-12-13T20:24:58.804Z,16.60
2018-12-13T20:27:27.110Z,19.00
2018-12-13T20:29:55.282Z,19.65
2018-12-13T20:32:24.079Z,17.80
2018-12-13T20:34:52.505Z,20.57
2018-12-13T20:37:20.734Z,18.32
2018-12-13T20:39:49.222Z,18.63
2018-12-13T20:42:17.798Z,21.37
2018-12-13T20:44:45.946Z,19.67
2018-12-13T20:47:14.021Z,20.43
2018-12-13T20:49:42.105Z,18.50
2018-12-13T20:52:10.275Z,19.05
2018-12-13T20:54:38.396Z,17.65
2018-12-13T20:57:06.730Z,17.27
2018-12-13T20:59:35.111Z,17.48
2018-12-13T21:02:03.343Z,19.60
2018-12-13T21:04:31.505Z,16.37
2018-12-13T21:07:05.488Z,16.27
2018-12-13T21:09:33.896Z,15.85
2018-12-13T21:12:02.038Z,16.05
2018-12-13T21:14:30.226Z,17.23
2018-12-13T21:17:00.102Z,16.65
2018-12-13T21:19:28.642Z,15.95
2018-12-13T21:21:56.853Z,18.20
2018-12-13T21:24:25.107Z,17.23
2018-12-13T21:26:53.362Z,17.65
2018-12-13T21:29:21.484Z,16.25
2018-12-13T21:31:49.822Z,17.73
2018-12-13T21:34:18.027Z,17.02
2018-12-13T21:36:46.420Z,16.47
2018-12-13T21:39:14.599Z,17.12
2018-12-13T21:41:42.730Z,17.87
2018-12-13T21:44:10.891Z,16.93
2018-12-13T21:46:39.159Z,18.23
2018-12-13T21:49:08.294Z,18.32
2018-12-13T21:51:36.497Z,16.42
2018-12-13T21:54:04.858Z,18.05
2018-12-13T21:56:33.138Z,16.90
2018-12-13T21:59:03.905Z,17.80
2018-12-13T22:01:31.738Z,16.70
2018-12-13T22:04:00.266Z,18.57
2018-12-13T22:06:28.476Z,16.65
2018-12-13T22:08:56.758Z,16.93
2018-12-13T22:11:25.379Z,18.77
2018-12-13T22:13:53.586Z,18.20
2018-12-13T22:16:21.847Z,16.32
2018-12-13T22:18:49.964Z,17.07
2018-12-13T22:21:18.170Z,17.48
2018-12-13T22:23:46.400Z,17.20
2018-12-13T22:26:14.817Z,16.50
2018-12-13T22:28:42.966Z,17.20
2018-12-13T22:31:11.115Z,17.60
2018-12-13T22:33:39.219Z,17.60
2018-12-13T22:36:07.319Z,18.67
2018-12-13T22:38:35.508Z,17.15
2018-12-13T22:41:04.086Z,16.17
2018-12-13T22:43:32.462Z,17.35
2018-12-13T22:46:03.546Z,17.57
2018-12-13T22:48:32.620Z,15.65
2018-12-13T22:51:01.266Z,17.40
2018-12-13T22:53:29.515Z,18.12
2018-12-13T22:55:58.256Z,17.90
2018-12-13T22:58:26.366Z,17.70
2018-12-13T23:00:54.702Z,18.85
2018-12-13T23:03:22.869Z,17.12
2018-12-13T23:05:51.014Z,15.80
2018-12-13T23:08:19.292Z,18.42
2018-12-13T23:10:47.745Z,17.27
2018-12-13T23:13:15.946Z,17.95
2018-12-13T23:15:44.312Z,18.60
2018-12-13T23:18:12.543Z,16.87
2018-12-13T23:20:40.762Z,18.73
2018-12-13T23:23:08.858Z,17.90
2018-12-13T23:25:36.994Z,16.95
2018-12-13T23:28:05.115Z,19.35
2018-12-13T23:30:33.384Z,18.57
2018-12-13T23:33:01.550Z,18.12
2018-12-13T23:35:29.673Z,18.30
2018-12-13T23:37:57.987Z,18.52
2018-12-13T23:40:26.127Z,18.50
2018-12-13T23:42:54.257Z,19.25
2018-12-13T23:45:22.530Z,18.98
2018-12-13T23:47:50.622Z,18.63
2018-12-13T23:50:18.882Z,17.37
2018-12-13T23:52:47.147Z,19.52
2018-12-13T23:55:15.273Z,18.95
2018-12-13T23:57:43.433Z,18.82
